Flight Track Log - Related Links

Times and Time Zones

All times are in EDT time to prevent confusion due to time zone crossing. See the PDT4458 flight status page for this flight to view local times or setup timezone preferences in your user account.

Time Position Orientation Groundspeed Altitude Reporting Facility
EDT Latitude Longitude Course Direction KTS MPH feet Rate Location/Type
Sun 04:14:01 PM 39.8833 -75.2000 37° Northeast 127 146 600  Level Philadelphia TRACON
Sun 04:14:31 PM 39.8833 -75.1833 90° East 127 146 1,500 1,667 Climbing Philadelphia TRACON
Sun 04:15:31 PM 39.9000 -75.1333 67° East 137 158 3,100 1,350 Climbing Philadelphia TRACON
Sun 04:16:00 PM 39.8500 -75.0303 90° East  Level FlightAware Approximate
Sun 04:16:31 PM 39.9000 -75.0833 90° East 169 194 4,200  Level Philadelphia TRACON
Sun 04:17:00 PM 39.8591 -74.9652 57° Northeast  Level FlightAware Approximate
Sun 04:17:37 PM 39.9333 -75.0167 57° Northeast 190 219 5,400  Level Philadelphia TRACON
Sun 04:18:00 PM 39.8930 -74.9140 57° Northeast  Level FlightAware Approximate
Sun 04:19:00 PM 39.9316 -74.8684 37° Northeast  Level FlightAware Approximate
Sun 04:19:31 PM 39.9833 -74.8833 64° Northeast 213 245 7,300  Level New York TRACON
Sun 04:20:26 PM 40.0000 -74.8333 66° East 212 244 8,000 350 Climbing New York TRACON
Sun 04:21:31 PM 40.0333 -74.7500 62° Northeast 235 270 8,000  Level New York TRACON
Sun 04:22:26 PM 40.0833 -74.6833 46° Northeast 241 277 8,000  Level New York TRACON
Sun 04:23:25 PM 40.1167 -74.6167 57° Northeast 240 276 8,000  Level New York TRACON
Sun 04:24:25 PM 40.1667 -74.5500 46° Northeast 242 278 8,000  Level New York TRACON
Sun 04:25:26 PM 40.2167 -74.5000 37° Northeast 239 275 8,000  Level New York TRACON
Sun 04:26:31 PM 40.2667 -74.4333 45° Northeast 239 275 8,000  Level New York TRACON
Sun 04:27:31 PM 40.3167 -74.3833 37° Northeast 237 273 8,000  Level New York TRACON
Sun 04:28:31 PM 40.3667 -74.3333 37° Northeast 239 275 8,000  Level New York TRACON
Sun 04:29:26 PM 40.4167 -74.2667 45° Northeast 238 274 8,000 -53 Level New York TRACON
Sun 04:30:25 PM 40.4667 -74.2167 37° Northeast 235 270 7,900 -504 Descending New York TRACON
Sun 04:31:25 PM 40.5167 -74.1667 37° Northeast 259 298 7,000 -942 Descending New York TRACON
Sun 04:32:26 PM 40.5667 -74.1000 45° Northeast 259 298 6,000 -992 Descending New York TRACON
Sun 04:33:26 PM 40.6333 -74.0667 21° North 225 259 5,000 -960 Descending New York TRACON
Sun 04:34:31 PM 40.7000 -74.0333 21° North 217 250 4,000 -480 Descending New York TRACON
Sun 04:35:31 PM 40.7500 -74.0167 14° North 215 247 4,000  Level New York TRACON
Sun 04:36:31 PM 40.8000 -73.9833 27° Northeast 217 250 4,000 -200 Level New York TRACON
Sun 04:37:31 PM 40.8667 -73.9500 21° North 218 251 3,600 -700 Descending New York TRACON
Sun 04:38:31 PM 40.9167 -73.9167 27° Northeast 212 244 2,600 -550 Descending New York TRACON
Sun 04:39:31 PM 40.9667 -73.8833 27° Northeast 215 247 2,500 -150 Descending New York TRACON
Sun 04:40:31 PM 40.9667 -73.8167 90° East 202 232 2,300 -250 Descending New York TRACON
Sun 04:41:31 PM 40.9500 -73.7667 114° Southeast 180 207 2,000 -300 Descending New York TRACON

Login

Don't have an account? Register now (free) for customized features, flight alerts, and more!